sensor_id;sensor_type;location;lat;lon;timestamp;P1;durP1;ratioP1;P2;durP2;ratioP2
52186;SDS011;38161;53.020;6.598;2023-08-01T00:00:25;133.82;;;125.60;;
52186;SDS011;38161;53.020;6.598;2023-08-01T00:02:55;129.38;;;120.95;;
52186;SDS011;38161;53.020;6.598;2023-08-01T00:05:25;137.23;;;126.18;;
52186;SDS011;38161;53.020;6.598;2023-08-01T00:07:54;135.48;;;126.97;;
52186;SDS011;38161;53.020;6.598;2023-08-01T00:10:22;134.85;;;126.93;;
52186;SDS011;38161;53.020;6.598;2023-08-01T00:12:50;120.43;;;112.70;;
52186;SDS011;38161;53.020;6.598;2023-08-01T00:15:24;136.55;;;128.38;;
52186;SDS011;38161;53.020;6.598;2023-08-01T00:18:05;131.85;;;124.18;;
52186;SDS011;38161;53.020;6.598;2023-08-01T00:20:45;123.60;;;116.03;;
52186;SDS011;38161;53.020;6.598;2023-08-01T00:23:11;129.65;;;120.30;;
52186;SDS011;38161;53.020;6.598;2023-08-01T00:25:44;139.15;;;130.35;;
52186;SDS011;38161;53.020;6.598;2023-08-01T00:28:27;133.65;;;125.50;;
52186;SDS011;38161;53.020;6.598;2023-08-01T00:31:06;128.93;;;121.68;;
52186;SDS011;38161;53.020;6.598;2023-08-01T00:33:42;124.72;;;117.13;;
52186;SDS011;38161;53.020;6.598;2023-08-01T00:36:08;127.60;;;120.15;;
52186;SDS011;38161;53.020;6.598;2023-08-01T00:38:36;136.75;;;126.60;;
52186;SDS011;38161;53.020;6.598;2023-08-01T00:41:09;133.30;;;125.65;;
52186;SDS011;38161;53.020;6.598;2023-08-01T00:43:47;116.18;;;109.68;;
52186;SDS011;38161;53.020;6.598;2023-08-01T00:46:13;122.57;;;115.63;;
52186;SDS011;38161;53.020;6.598;2023-08-01T00:48:46;121.63;;;114.55;;
52186;SDS011;38161;53.020;6.598;2023-08-01T00:51:15;115.32;;;108.38;;
52186;SDS011;38161;53.020;6.598;2023-08-01T00:53:46;114.20;;;107.78;;
52186;SDS011;38161;53.020;6.598;2023-08-01T00:56:13;114.03;;;107.65;;
52186;SDS011;38161;53.020;6.598;2023-08-01T00:59:12;103.88;;;98.13;;
52186;SDS011;38161;53.020;6.598;2023-08-01T01:01:45;109.47;;;103.10;;
52186;SDS011;38161;53.020;6.598;2023-08-01T01:04:12;102.78;;;97.18;;
52186;SDS011;38161;53.020;6.598;2023-08-01T01:06:51;112.97;;;106.40;;
52186;SDS011;38161;53.020;6.598;2023-08-01T01:09:32;99.95;;;94.30;;
52186;SDS011;38161;53.020;6.598;2023-08-01T01:12:02;100.45;;;94.88;;
52186;SDS011;38161;53.020;6.598;2023-08-01T01:14:41;107.50;;;101.65;;
52186;SDS011;38161;53.020;6.598;2023-08-01T01:17:12;108.88;;;102.65;;
52186;SDS011;38161;53.020;6.598;2023-08-01T01:19:46;104.75;;;99.13;;
52186;SDS011;38161;53.020;6.598;2023-08-01T01:22:19;103.10;;;97.35;;
52186;SDS011;38161;53.020;6.598;2023-08-01T01:24:55;101.53;;;96.20;;
52186;SDS011;38161;53.020;6.598;2023-08-01T01:27:22;107.97;;;101.97;;
52186;SDS011;38161;53.020;6.598;2023-08-01T01:29:50;104.15;;;98.38;;
52186;SDS011;38161;53.020;6.598;2023-08-01T01:32:24;110.95;;;104.57;;
52186;SDS011;38161;53.020;6.598;2023-08-01T01:34:51;105.22;;;99.65;;
52186;SDS011;38161;53.020;6.598;2023-08-01T01:37:17;107.32;;;101.20;;
52186;SDS011;38161;53.020;6.598;2023-08-01T01:39:43;97.13;;;91.85;;
52186;SDS011;38161;53.020;6.598;2023-08-01T01:42:15;101.35;;;95.70;;
52186;SDS011;38161;53.020;6.598;2023-08-01T01:44:44;107.65;;;101.88;;
52186;SDS011;38161;53.020;6.598;2023-08-01T01:47:11;105.18;;;99.55;;
52186;SDS011;38161;53.020;6.598;2023-08-01T01:49:37;106.18;;;100.38;;
52186;SDS011;38161;53.020;6.598;2023-08-01T01:52:03;101.95;;;96.05;;
52186;SDS011;38161;53.020;6.598;2023-08-01T01:54:29;98.85;;;93.35;;
52186;SDS011;38161;53.020;6.598;2023-08-01T01:56:55;102.75;;;96.88;;
52186;SDS011;38161;53.020;6.598;2023-08-01T01:59:21;100.13;;;94.78;;
52186;SDS011;38161;53.020;6.598;2023-08-01T02:01:50;108.57;;;102.57;;
52186;SDS011;38161;53.020;6.598;2023-08-01T02:04:16;109.13;;;103.32;;
52186;SDS011;38161;53.020;6.598;2023-08-01T02:06:47;112.07;;;106.03;;
52186;SDS011;38161;53.020;6.598;2023-08-01T02:09:19;102.60;;;97.05;;
52186;SDS011;38161;53.020;6.598;2023-08-01T02:11:45;116.60;;;110.15;;
52186;SDS011;38161;53.020;6.598;2023-08-01T02:14:19;111.43;;;105.35;;
52186;SDS011;38161;53.020;6.598;2023-08-01T02:16:55;104.35;;;98.57;;
52186;SDS011;38161;53.020;6.598;2023-08-01T02:19:21;104.40;;;98.55;;
52186;SDS011;38161;53.020;6.598;2023-08-01T02:21:47;104.85;;;99.05;;
52186;SDS011;38161;53.020;6.598;2023-08-01T02:24:19;100.88;;;95.30;;
52186;SDS011;38161;53.020;6.598;2023-08-01T02:26:45;102.07;;;96.47;;
52186;SDS011;38161;53.020;6.598;2023-08-01T02:29:23;97.00;;;91.60;;
52186;SDS011;38161;53.020;6.598;2023-08-01T02:31:49;98.45;;;93.00;;
52186;SDS011;38161;53.020;6.598;2023-08-01T02:34:15;104.57;;;99.10;;
52186;SDS011;38161;53.020;6.598;2023-08-01T02:36:44;105.53;;;99.68;;
52186;SDS011;38161;53.020;6.598;2023-08-01T02:39:10;105.70;;;99.85;;
52186;SDS011;38161;53.020;6.598;2023-08-01T02:41:39;99.95;;;94.72;;
52186;SDS011;38161;53.020;6.598;2023-08-01T02:44:09;96.82;;;91.43;;
52186;SDS011;38161;53.020;6.598;2023-08-01T02:46:46;99.38;;;93.47;;
52186;SDS011;38161;53.020;6.598;2023-08-01T02:49:12;98.80;;;93.55;;
52186;SDS011;38161;53.020;6.598;2023-08-01T02:51:41;100.18;;;94.82;;
52186;SDS011;38161;53.020;6.598;2023-08-01T02:54:07;96.30;;;90.75;;
52186;SDS011;38161;53.020;6.598;2023-08-01T02:56:33;100.10;;;93.78;;
52186;SDS011;38161;53.020;6.598;2023-08-01T02:58:59;105.43;;;99.30;;
52186;SDS011;38161;53.020;6.598;2023-08-01T03:01:24;100.72;;;94.93;;
52186;SDS011;38161;53.020;6.598;2023-08-01T03:03:50;115.82;;;109.38;;
52186;SDS011;38161;53.020;6.598;2023-08-01T03:06:20;103.68;;;98.07;;
52186;SDS011;38161;53.020;6.598;2023-08-01T03:08:46;99.05;;;93.40;;
52186;SDS011;38161;53.020;6.598;2023-08-01T03:11:12;101.13;;;95.13;;
52186;SDS011;38161;53.020;6.598;2023-08-01T03:13:41;103.22;;;96.97;;
52186;SDS011;38161;53.020;6.598;2023-08-01T03:16:20;96.20;;;90.70;;
52186;SDS011;38161;53.020;6.598;2023-08-01T03:18:59;98.72;;;93.30;;
52186;SDS011;38161;53.020;6.598;2023-08-01T03:21:37;95.60;;;90.47;;
52186;SDS011;38161;53.020;6.598;2023-08-01T03:24:08;101.57;;;95.72;;
52186;SDS011;38161;53.020;6.598;2023-08-01T03:26:35;104.65;;;98.50;;
52186;SDS011;38161;53.020;6.598;2023-08-01T03:29:02;97.63;;;92.28;;
52186;SDS011;38161;53.020;6.598;2023-08-01T03:31:28;103.00;;;97.22;;
52186;SDS011;38161;53.020;6.598;2023-08-01T03:33:57;98.25;;;92.88;;
52186;SDS011;38161;53.020;6.598;2023-08-01T03:36:24;105.43;;;99.53;;
52186;SDS011;38161;53.020;6.598;2023-08-01T03:38:51;108.28;;;102.10;;
52186;SDS011;38161;53.020;6.598;2023-08-01T03:41:28;103.03;;;97.35;;
52186;SDS011;38161;53.020;6.598;2023-08-01T03:43:54;98.80;;;93.32;;
52186;SDS011;38161;53.020;6.598;2023-08-01T03:46:20;101.95;;;96.40;;
52186;SDS011;38161;53.020;6.598;2023-08-01T03:48:46;102.03;;;96.43;;
52186;SDS011;38161;53.020;6.598;2023-08-01T03:51:12;97.43;;;91.97;;
52186;SDS011;38161;53.020;6.598;2023-08-01T03:53:40;93.82;;;88.68;;
52186;SDS011;38161;53.020;6.598;2023-08-01T03:56:10;99.53;;;94.20;;
52186;SDS011;38161;53.020;6.598;2023-08-01T03:58:36;104.00;;;98.13;;
52186;SDS011;38161;53.020;6.598;2023-08-01T04:01:02;102.90;;;97.40;;
52186;SDS011;38161;53.020;6.598;2023-08-01T04:03:28;93.15;;;88.25;;
52186;SDS011;38161;53.020;6.598;2023-08-01T04:06:00;102.07;;;96.63;;
52186;SDS011;38161;53.020;6.598;2023-08-01T04:08:29;99.10;;;93.45;;
52186;SDS011;38161;53.020;6.598;2023-08-01T04:10:55;94.82;;;89.85;;
52186;SDS011;38161;53.020;6.598;2023-08-01T04:13:21;98.05;;;92.65;;
52186;SDS011;38161;53.020;6.598;2023-08-01T04:15:59;102.97;;;96.97;;
52186;SDS011;38161;53.020;6.598;2023-08-01T04:18:33;96.32;;;91.07;;
52186;SDS011;38161;53.020;6.598;2023-08-01T04:21:07;92.10;;;87.22;;
52186;SDS011;38161;53.020;6.598;2023-08-01T04:23:33;90.97;;;86.15;;
52186;SDS011;38161;53.020;6.598;2023-08-01T04:26:07;94.18;;;89.25;;
52186;SDS011;38161;53.020;6.598;2023-08-01T04:28:34;100.15;;;94.93;;
52186;SDS011;38161;53.020;6.598;2023-08-01T04:31:03;99.88;;;94.07;;
52186;SDS011;38161;53.020;6.598;2023-08-01T04:33:29;95.15;;;90.03;;
52186;SDS011;38161;53.020;6.598;2023-08-01T04:36:01;92.65;;;87.90;;
52186;SDS011;38161;53.020;6.598;2023-08-01T04:38:27;93.45;;;88.43;;
52186;SDS011;38161;53.020;6.598;2023-08-01T04:40:59;95.68;;;90.63;;
52186;SDS011;38161;53.020;6.598;2023-08-01T04:43:25;94.00;;;89.05;;
52186;SDS011;38161;53.020;6.598;2023-08-01T04:45:52;97.75;;;92.55;;
52186;SDS011;38161;53.020;6.598;2023-08-01T04:48:36;85.07;;;80.75;;
52186;SDS011;38161;53.020;6.598;2023-08-01T04:51:07;95.60;;;90.13;;
52186;SDS011;38161;53.020;6.598;2023-08-01T04:53:43;88.38;;;83.75;;
52186;SDS011;38161;53.020;6.598;2023-08-01T04:56:13;86.30;;;81.32;;
52186;SDS011;38161;53.020;6.598;2023-08-01T04:58:41;88.85;;;83.82;;
52186;SDS011;38161;53.020;6.598;2023-08-01T05:01:07;93.18;;;88.20;;
52186;SDS011;38161;53.020;6.598;2023-08-01T05:03:37;89.00;;;84.47;;
52186;SDS011;38161;53.020;6.598;2023-08-01T05:06:10;86.72;;;82.15;;
52186;SDS011;38161;53.020;6.598;2023-08-01T05:08:40;93.07;;;88.28;;
52186;SDS011;38161;53.020;6.598;2023-08-01T05:11:06;93.95;;;89.28;;
52186;SDS011;38161;53.020;6.598;2023-08-01T05:13:35;91.35;;;86.75;;
52186;SDS011;38161;53.020;6.598;2023-08-01T05:16:01;90.68;;;86.00;;
52186;SDS011;38161;53.020;6.598;2023-08-01T05:18:35;89.20;;;84.40;;
52186;SDS011;38161;53.020;6.598;2023-08-01T05:21:08;87.85;;;83.28;;
52186;SDS011;38161;53.020;6.598;2023-08-01T05:23:42;91.72;;;86.93;;
52186;SDS011;38161;53.020;6.598;2023-08-01T05:26:21;92.22;;;87.18;;
52186;SDS011;38161;53.020;6.598;2023-08-01T05:28:53;85.40;;;80.95;;
52186;SDS011;38161;53.020;6.598;2023-08-01T05:31:35;101.30;;;95.60;;
52186;SDS011;38161;53.020;6.598;2023-08-01T05:34:02;93.10;;;88.35;;
52186;SDS011;38161;53.020;6.598;2023-08-01T05:36:29;96.32;;;91.38;;
52186;SDS011;38161;53.020;6.598;2023-08-01T05:39:02;96.88;;;92.03;;
52186;SDS011;38161;53.020;6.598;2023-08-01T05:41:37;90.15;;;85.53;;
52186;SDS011;38161;53.020;6.598;2023-08-01T05:44:06;91.65;;;86.95;;
52186;SDS011;38161;53.020;6.598;2023-08-01T05:46:32;94.32;;;89.45;;
52186;SDS011;38161;53.020;6.598;2023-08-01T05:48:58;96.25;;;91.28;;
52186;SDS011;38161;53.020;6.598;2023-08-01T05:51:25;100.93;;;95.68;;
52186;SDS011;38161;53.020;6.598;2023-08-01T05:54:06;97.55;;;92.25;;
52186;SDS011;38161;53.020;6.598;2023-08-01T05:56:44;90.78;;;86.13;;
52186;SDS011;38161;53.020;6.598;2023-08-01T05:59:12;100.15;;;94.80;;
52186;SDS011;38161;53.020;6.598;2023-08-01T06:01:59;99.60;;;94.40;;
52186;SDS011;38161;53.020;6.598;2023-08-01T06:04:25;98.95;;;93.90;;
52186;SDS011;38161;53.020;6.598;2023-08-01T06:06:54;92.93;;;87.97;;
52186;SDS011;38161;53.020;6.598;2023-08-01T06:09:22;92.35;;;87.38;;
52186;SDS011;38161;53.020;6.598;2023-08-01T06:11:57;100.65;;;95.28;;
52186;SDS011;38161;53.020;6.598;2023-08-01T06:14:32;101.50;;;95.78;;
52186;SDS011;38161;53.020;6.598;2023-08-01T06:17:11;98.22;;;93.05;;
52186;SDS011;38161;53.020;6.598;2023-08-01T06:19:41;102.13;;;96.78;;
52186;SDS011;38161;53.020;6.598;2023-08-01T06:22:07;103.70;;;98.18;;
52186;SDS011;38161;53.020;6.598;2023-08-01T06:27:00;90.10;;;85.35;;
52186;SDS011;38161;53.020;6.598;2023-08-01T06:29:32;98.82;;;93.38;;
52186;SDS011;38161;53.020;6.598;2023-08-01T06:32:06;103.93;;;98.22;;
52186;SDS011;38161;53.020;6.598;2023-08-01T06:34:38;106.80;;;100.85;;
52186;SDS011;38161;53.020;6.598;2023-08-01T06:37:05;103.57;;;98.13;;
52186;SDS011;38161;53.020;6.598;2023-08-01T06:39:36;111.10;;;105.13;;
52186;SDS011;38161;53.020;6.598;2023-08-01T06:42:04;98.35;;;92.80;;
52186;SDS011;38161;53.020;6.598;2023-08-01T06:44:32;114.00;;;107.85;;
52186;SDS011;38161;53.020;6.598;2023-08-01T06:46:59;113.20;;;106.88;;
52186;SDS011;38161;53.020;6.598;2023-08-01T06:49:26;102.93;;;97.40;;
52186;SDS011;38161;53.020;6.598;2023-08-01T06:51:56;102.30;;;96.57;;
52186;SDS011;38161;53.020;6.598;2023-08-01T06:54:25;112.25;;;106.10;;
52186;SDS011;38161;53.020;6.598;2023-08-01T06:56:51;116.55;;;110.25;;
52186;SDS011;38161;53.020;6.598;2023-08-01T06:59:31;105.35;;;99.68;;
52186;SDS011;38161;53.020;6.598;2023-08-01T07:01:59;107.93;;;102.10;;
52186;SDS011;38161;53.020;6.598;2023-08-01T07:04:27;113.32;;;107.32;;
52186;SDS011;38161;53.020;6.598;2023-08-01T07:06:54;126.80;;;119.72;;
52186;SDS011;38161;53.020;6.598;2023-08-01T07:09:20;121.57;;;114.45;;
52186;SDS011;38161;53.020;6.598;2023-08-01T07:11:46;120.60;;;114.03;;
52186;SDS011;38161;53.020;6.598;2023-08-01T07:14:12;130.50;;;123.20;;
52186;SDS011;38161;53.020;6.598;2023-08-01T07:16:38;123.22;;;116.50;;
52186;SDS011;38161;53.020;6.598;2023-08-01T07:19:04;123.28;;;116.22;;
52186;SDS011;38161;53.020;6.598;2023-08-01T07:23:59;107.85;;;102.03;;
52186;SDS011;38161;53.020;6.598;2023-08-01T07:26:26;112.47;;;106.47;;
52186;SDS011;38161;53.020;6.598;2023-08-01T07:28:53;114.60;;;108.22;;
52186;SDS011;38161;53.020;6.598;2023-08-01T07:31:20;122.70;;;115.40;;
52186;SDS011;38161;53.020;6.598;2023-08-01T07:33:46;120.97;;;114.10;;
52186;SDS011;38161;53.020;6.598;2023-08-01T07:36:12;118.22;;;112.07;;
52186;SDS011;38161;53.020;6.598;2023-08-01T07:38:38;115.40;;;109.43;;
52186;SDS011;38161;53.020;6.598;2023-08-01T07:41:04;120.15;;;113.68;;
52186;SDS011;38161;53.020;6.598;2023-08-01T07:43:32;124.50;;;117.47;;
52186;SDS011;38161;53.020;6.598;2023-08-01T07:45:58;117.93;;;110.70;;
52186;SDS011;38161;53.020;6.598;2023-08-01T07:48:27;116.20;;;110.13;;
52186;SDS011;38161;53.020;6.598;2023-08-01T07:50:53;104.65;;;98.63;;
52186;SDS011;38161;53.020;6.598;2023-08-01T07:53:21;112.78;;;106.53;;
52186;SDS011;38161;53.020;6.598;2023-08-01T07:55:46;121.38;;;114.55;;
52186;SDS011;38161;53.020;6.598;2023-08-01T07:58:13;119.35;;;112.53;;
52186;SDS011;38161;53.020;6.598;2023-08-01T08:00:39;123.82;;;117.05;;
52186;SDS011;38161;53.020;6.598;2023-08-01T08:03:06;116.97;;;110.63;;
52186;SDS011;38161;53.020;6.598;2023-08-01T08:05:33;113.28;;;107.07;;
52186;SDS011;38161;53.020;6.598;2023-08-01T08:08:03;123.70;;;116.45;;
52186;SDS011;38161;53.020;6.598;2023-08-01T08:10:30;129.93;;;122.28;;
52186;SDS011;38161;53.020;6.598;2023-08-01T08:12:59;113.90;;;107.05;;
52186;SDS011;38161;53.020;6.598;2023-08-01T08:15:30;118.70;;;111.85;;
52186;SDS011;38161;53.020;6.598;2023-08-01T08:18:01;113.63;;;107.38;;
52186;SDS011;38161;53.020;6.598;2023-08-01T08:20:40;104.93;;;99.22;;
52186;SDS011;38161;53.020;6.598;2023-08-01T08:23:08;113.32;;;107.30;;
52186;SDS011;38161;53.020;6.598;2023-08-01T08:25:35;118.47;;;111.43;;
52186;SDS011;38161;53.020;6.598;2023-08-01T08:28:02;117.72;;;111.07;;
52186;SDS011;38161;53.020;6.598;2023-08-01T08:30:29;116.80;;;110.40;;
52186;SDS011;38161;53.020;6.598;2023-08-01T08:32:56;117.88;;;111.43;;
52186;SDS011;38161;53.020;6.598;2023-08-01T08:35:23;109.40;;;103.45;;
52186;SDS011;38161;53.020;6.598;2023-08-01T08:37:55;112.78;;;106.72;;
52186;SDS011;38161;53.020;6.598;2023-08-01T08:40:21;111.65;;;105.75;;
52186;SDS011;38161;53.020;6.598;2023-08-01T08:45:18;88.75;;;83.85;;
52186;SDS011;38161;53.020;6.598;2023-08-01T08:47:51;113.70;;;107.75;;
52186;SDS011;38161;53.020;6.598;2023-08-01T08:50:25;113.53;;;107.43;;
52186;SDS011;38161;53.020;6.598;2023-08-01T08:52:57;114.60;;;108.47;;
52186;SDS011;38161;53.020;6.598;2023-08-01T08:55:43;99.40;;;94.07;;
52186;SDS011;38161;53.020;6.598;2023-08-01T08:58:33;114.38;;;108.35;;
52186;SDS011;38161;53.020;6.598;2023-08-01T09:01:14;114.85;;;108.35;;
52186;SDS011;38161;53.020;6.598;2023-08-01T09:03:42;116.20;;;109.53;;
52186;SDS011;38161;53.020;6.598;2023-08-01T09:06:17;122.93;;;116.13;;
52186;SDS011;38161;53.020;6.598;2023-08-01T09:08:55;122.13;;;115.43;;
52186;SDS011;38161;53.020;6.598;2023-08-01T09:11:40;120.45;;;114.07;;
52186;SDS011;38161;53.020;6.598;2023-08-01T09:14:09;127.15;;;118.85;;
52186;SDS011;38161;53.020;6.598;2023-08-01T09:16:36;133.75;;;126.28;;
52186;SDS011;38161;53.020;6.598;2023-08-01T09:19:05;131.02;;;123.63;;
52186;SDS011;38161;53.020;6.598;2023-08-01T09:21:34;126.43;;;119.38;;
52186;SDS011;38161;53.020;6.598;2023-08-01T09:24:13;128.13;;;120.88;;
52186;SDS011;38161;53.020;6.598;2023-08-01T09:26:44;128.82;;;120.95;;
52186;SDS011;38161;53.020;6.598;2023-08-01T09:32:12;124.78;;;117.50;;
52186;SDS011;38161;53.020;6.598;2023-08-01T09:35:00;135.55;;;127.88;;
52186;SDS011;38161;53.020;6.598;2023-08-01T09:37:26;128.75;;;121.68;;
52186;SDS011;38161;53.020;6.598;2023-08-01T09:40:06;125.32;;;118.28;;
52186;SDS011;38161;53.020;6.598;2023-08-01T09:42:43;133.18;;;125.38;;
52186;SDS011;38161;53.020;6.598;2023-08-01T09:45:13;144.95;;;135.77;;
52186;SDS011;38161;53.020;6.598;2023-08-01T09:47:44;144.80;;;136.63;;
52186;SDS011;38161;53.020;6.598;2023-08-01T09:50:11;147.95;;;138.63;;
52186;SDS011;38161;53.020;6.598;2023-08-01T09:52:45;145.70;;;136.45;;
52186;SDS011;38161;53.020;6.598;2023-08-01T09:55:31;143.45;;;133.43;;
52186;SDS011;38161;53.020;6.598;2023-08-01T09:58:01;144.32;;;135.90;;
52186;SDS011;38161;53.020;6.598;2023-08-01T10:00:37;149.05;;;139.38;;
52186;SDS011;38161;53.020;6.598;2023-08-01T10:03:05;139.60;;;130.93;;
52186;SDS011;38161;53.020;6.598;2023-08-01T10:05:33;155.30;;;145.70;;
52186;SDS011;38161;53.020;6.598;2023-08-01T10:08:07;154.95;;;145.10;;
52186;SDS011;38161;53.020;6.598;2023-08-01T10:10:35;158.48;;;147.30;;
52186;SDS011;38161;53.020;6.598;2023-08-01T10:13:02;134.20;;;126.68;;
52186;SDS011;38161;53.020;6.598;2023-08-01T10:15:30;145.68;;;137.18;;
52186;SDS011;38161;53.020;6.598;2023-08-01T10:18:08;149.48;;;140.73;;
52186;SDS011;38161;53.020;6.598;2023-08-01T10:20:37;156.00;;;146.68;;
52186;SDS011;38161;53.020;6.598;2023-08-01T10:23:05;155.35;;;146.10;;
52186;SDS011;38161;53.020;6.598;2023-08-01T10:25:33;151.52;;;142.32;;
52186;SDS011;38161;53.020;6.598;2023-08-01T10:28:01;150.40;;;140.55;;
52186;SDS011;38161;53.020;6.598;2023-08-01T10:30:30;127.50;;;118.20;;
52186;SDS011;38161;53.020;6.598;2023-08-01T10:33:00;147.95;;;139.38;;
52186;SDS011;38161;53.020;6.598;2023-08-01T10:35:35;158.73;;;148.20;;
52186;SDS011;38161;53.020;6.598;2023-08-01T10:38:10;176.05;;;163.60;;
52186;SDS011;38161;53.020;6.598;2023-08-01T10:40:37;189.05;;;174.82;;
52186;SDS011;38161;53.020;6.598;2023-08-01T10:43:20;197.63;;;182.00;;
52186;SDS011;38161;53.020;6.598;2023-08-01T10:46:00;220.98;;;199.65;;
52186;SDS011;38161;53.020;6.598;2023-08-01T10:48:27;212.30;;;194.73;;
52186;SDS011;38161;53.020;6.598;2023-08-01T10:50:56;228.63;;;207.32;;
52186;SDS011;38161;53.020;6.598;2023-08-01T10:53:23;237.73;;;214.55;;
52186;SDS011;38161;53.020;6.598;2023-08-01T10:55:50;227.05;;;209.52;;
52186;SDS011;38161;53.020;6.598;2023-08-01T10:58:16;226.32;;;204.45;;
52186;SDS011;38161;53.020;6.598;2023-08-01T11:00:42;204.90;;;188.80;;
52186;SDS011;38161;53.020;6.598;2023-08-01T11:03:09;205.73;;;187.30;;
52186;SDS011;38161;53.020;6.598;2023-08-01T11:05:36;211.18;;;194.27;;
52186;SDS011;38161;53.020;6.598;2023-08-01T11:08:02;308.70;;;179.18;;
52186;SDS011;38161;53.020;6.598;2023-08-01T11:10:30;205.55;;;187.73;;
52186;SDS011;38161;53.020;6.598;2023-08-01T11:12:59;193.93;;;179.48;;
52186;SDS011;38161;53.020;6.598;2023-08-01T11:15:25;185.77;;;171.80;;
52186;SDS011;38161;53.020;6.598;2023-08-01T11:17:53;201.55;;;185.60;;
52186;SDS011;38161;53.020;6.598;2023-08-01T11:20:21;209.77;;;188.60;;
52186;SDS011;38161;53.020;6.598;2023-08-01T11:22:54;187.05;;;173.70;;
52186;SDS011;38161;53.020;6.598;2023-08-01T11:28:06;172.13;;;156.50;;
52186;SDS011;38161;53.020;6.598;2023-08-01T11:30:33;174.07;;;162.77;;
52186;SDS011;38161;53.020;6.598;2023-08-01T11:33:00;181.43;;;165.45;;
52186;SDS011;38161;53.020;6.598;2023-08-01T11:35:28;171.63;;;158.00;;
52186;SDS011;38161;53.020;6.598;2023-08-01T11:37:54;162.55;;;152.20;;
52186;SDS011;38161;53.020;6.598;2023-08-01T11:40:21;153.80;;;142.15;;
52186;SDS011;38161;53.020;6.598;2023-08-01T11:42:51;142.25;;;131.40;;
52186;SDS011;38161;53.020;6.598;2023-08-01T11:45:22;139.32;;;130.90;;
52186;SDS011;38161;53.020;6.598;2023-08-01T11:47:48;144.82;;;134.32;;
52186;SDS011;38161;53.020;6.598;2023-08-01T11:50:14;132.20;;;122.57;;
52186;SDS011;38161;53.020;6.598;2023-08-01T11:52:46;124.25;;;116.60;;
52186;SDS011;38161;53.020;6.598;2023-08-01T11:57:52;116.18;;;109.38;;
52186;SDS011;38161;53.020;6.598;2023-08-01T12:00:23;123.97;;;117.00;;
52186;SDS011;38161;53.020;6.598;2023-08-01T12:02:50;121.25;;;113.85;;
52186;SDS011;38161;53.020;6.598;2023-08-01T12:05:21;136.88;;;126.35;;
52186;SDS011;38161;53.020;6.598;2023-08-01T12:07:48;119.00;;;111.38;;
52186;SDS011;38161;53.020;6.598;2023-08-01T12:12:44;116.25;;;109.70;;
52186;SDS011;38161;53.020;6.598;2023-08-01T12:15:13;122.38;;;114.97;;
52186;SDS011;38161;53.020;6.598;2023-08-01T12:17:40;125.40;;;117.47;;
52186;SDS011;38161;53.020;6.598;2023-08-01T12:20:06;125.68;;;118.35;;
52186;SDS011;38161;53.020;6.598;2023-08-01T12:22:33;120.97;;;111.97;;
52186;SDS011;38161;53.020;6.598;2023-08-01T12:24:59;129.95;;;122.32;;
52186;SDS011;38161;53.020;6.598;2023-08-01T12:27:25;103.13;;;94.93;;
52186;SDS011;38161;53.020;6.598;2023-08-01T12:29:50;119.80;;;111.22;;
52186;SDS011;38161;53.020;6.598;2023-08-01T12:32:17;104.32;;;98.47;;
52186;SDS011;38161;53.020;6.598;2023-08-01T12:34:43;108.00;;;100.53;;
52186;SDS011;38161;53.020;6.598;2023-08-01T12:37:09;120.63;;;110.43;;
52186;SDS011;38161;53.020;6.598;2023-08-01T12:39:35;116.53;;;108.65;;
52186;SDS011;38161;53.020;6.598;2023-08-01T12:42:00;117.85;;;110.78;;
52186;SDS011;38161;53.020;6.598;2023-08-01T12:44:26;113.53;;;106.80;;
52186;SDS011;38161;53.020;6.598;2023-08-01T12:46:52;106.57;;;100.20;;
52186;SDS011;38161;53.020;6.598;2023-08-01T12:49:18;121.25;;;112.72;;
52186;SDS011;38161;53.020;6.598;2023-08-01T12:51:44;116.93;;;109.15;;
52186;SDS011;38161;53.020;6.598;2023-08-01T12:54:10;114.40;;;107.25;;
52186;SDS011;38161;53.020;6.598;2023-08-01T12:56:37;103.43;;;97.70;;
52186;SDS011;38161;53.020;6.598;2023-08-01T12:59:02;102.28;;;96.22;;
52186;SDS011;38161;53.020;6.598;2023-08-01T13:03:55;105.88;;;98.20;;
52186;SDS011;38161;53.020;6.598;2023-08-01T13:06:21;108.15;;;100.85;;
52186;SDS011;38161;53.020;6.598;2023-08-01T13:08:47;105.72;;;97.53;;
52186;SDS011;38161;53.020;6.598;2023-08-01T13:11:14;105.07;;;96.75;;
52186;SDS011;38161;53.020;6.598;2023-08-01T13:13:40;96.18;;;89.80;;
52186;SDS011;38161;53.020;6.598;2023-08-01T13:16:07;220.43;;;111.57;;
52186;SDS011;38161;53.020;6.598;2023-08-01T13:21:00;101.80;;;96.07;;
52186;SDS011;38161;53.020;6.598;2023-08-01T13:23:26;104.00;;;97.22;;
52186;SDS011;38161;53.020;6.598;2023-08-01T13:25:52;99.88;;;94.30;;
52186;SDS011;38161;53.020;6.598;2023-08-01T13:28:18;105.03;;;99.13;;
52186;SDS011;38161;53.020;6.598;2023-08-01T13:30:44;104.07;;;98.10;;
52186;SDS011;38161;53.020;6.598;2023-08-01T13:33:10;116.55;;;106.05;;
52186;SDS011;38161;53.020;6.598;2023-08-01T13:35:36;102.43;;;95.82;;
52186;SDS011;38161;53.020;6.598;2023-08-01T13:38:02;93.38;;;87.63;;
52186;SDS011;38161;53.020;6.598;2023-08-01T13:40:29;108.55;;;102.40;;
52186;SDS011;38161;53.020;6.598;2023-08-01T13:45:23;102.50;;;95.90;;
52186;SDS011;38161;53.020;6.598;2023-08-01T13:47:48;105.13;;;99.40;;
52186;SDS011;38161;53.020;6.598;2023-08-01T13:50:15;110.13;;;99.50;;
52186;SDS011;38161;53.020;6.598;2023-08-01T13:52:41;103.40;;;96.05;;
52186;SDS011;38161;53.020;6.598;2023-08-01T13:55:07;94.22;;;88.47;;
52186;SDS011;38161;53.020;6.598;2023-08-01T13:57:35;90.05;;;84.20;;
52186;SDS011;38161;53.020;6.598;2023-08-01T14:00:01;92.57;;;86.72;;
52186;SDS011;38161;53.020;6.598;2023-08-01T14:02:27;88.15;;;83.30;;
52186;SDS011;38161;53.020;6.598;2023-08-01T14:04:54;97.13;;;92.00;;
52186;SDS011;38161;53.020;6.598;2023-08-01T14:07:20;98.53;;;92.30;;
52186;SDS011;38161;53.020;6.598;2023-08-01T14:09:46;102.53;;;96.57;;
52186;SDS011;38161;53.020;6.598;2023-08-01T14:12:12;111.07;;;100.90;;
52186;SDS011;38161;53.020;6.598;2023-08-01T14:14:38;91.38;;;85.78;;
52186;SDS011;38161;53.020;6.598;2023-08-01T14:17:04;103.53;;;91.43;;
52186;SDS011;38161;53.020;6.598;2023-08-01T14:21:56;97.88;;;92.47;;
52186;SDS011;38161;53.020;6.598;2023-08-01T14:24:25;101.07;;;93.20;;
52186;SDS011;38161;53.020;6.598;2023-08-01T14:26:51;111.22;;;103.75;;
52186;SDS011;38161;53.020;6.598;2023-08-01T14:29:17;107.18;;;100.95;;
52186;SDS011;38161;53.020;6.598;2023-08-01T14:31:50;89.18;;;83.78;;
52186;SDS011;38161;53.020;6.598;2023-08-01T14:34:16;106.88;;;95.97;;
52186;SDS011;38161;53.020;6.598;2023-08-01T14:36:42;104.32;;;94.10;;
52186;SDS011;38161;53.020;6.598;2023-08-01T14:39:08;95.13;;;89.82;;
52186;SDS011;38161;53.020;6.598;2023-08-01T14:41:34;95.50;;;90.20;;
52186;SDS011;38161;53.020;6.598;2023-08-01T14:44:00;93.65;;;88.05;;
52186;SDS011;38161;53.020;6.598;2023-08-01T14:46:26;95.13;;;89.45;;